Time;durP1;ratioP1;P1;durP2;ratioP2;P2;SDS_P1;SDS_P2;PMS_P1;PMS_P2;Temp;Humidity;BMP_temperature;BMP_pressure;BME280_temperature;BME280_humidity;BME280_pressure;Samples;Min_cycle;Max_cycle;Signal;HPM_P1;HPM_P2
2023/12/18 00:00:34;;;;;;;29.80;13.10;;;;;;;2.27;71.66;101672.98;128907;1256;114683;-66
2023/12/18 00:04:07;;;;;;;22.80;10.60;;;;;;;2.21;71.71;101669.42;128785;1254;114692;-66
2023/12/18 00:07:15;;;;;;;21.70;10.80;;;;;;;2.16;71.79;101665.34;128878;1256;115305;-65
2023/12/18 00:10:20;;;;;;;20.00;10.00;;;;;;;2.12;71.98;101658.44;128812;1254;114684;-65
2023/12/18 00:13:25;;;;;;;19.60;9.70;;;;;;;2.08;72.03;101650.65;128696;1254;127691;-65
2023/12/18 00:16:35;;;;;;;21.40;9.40;;;;;;;2.03;72.17;101646.38;128720;1251;114382;-65
2023/12/18 00:19:38;;;;;;;18.70;10.00;;;;;;;2.00;72.09;101643.73;131888;1254;114015;-66
2023/12/18 00:22:43;;;;;;;17.10;8.60;;;;;;;1.97;72.14;101643.34;128966;1256;114654;-66
2023/12/18 00:25:46;;;;;;;19.90;9.70;;;;;;;1.93;72.06;101639.61;131882;1253;113269;-66
2023/12/18 00:28:51;;;;;;;16.80;8.80;;;;;;;1.91;72.22;101636.79;128738;1255;127867;-68
2023/12/18 00:31:54;;;;;;;15.00;7.70;;;;;;;1.90;72.33;101631.14;131839;1253;114648;-65
2023/12/18 00:34:57;;;;;;;15.00;8.20;;;;;;;1.88;72.52;101627.95;131813;1251;114657;-65
2023/12/18 00:38:00;;;;;;;20.60;8.70;;;;;;;1.83;72.44;101620.52;131860;1253;113136;-65
2023/12/18 00:41:03;;;;;;;14.80;8.30;;;;;;;1.77;72.41;101618.00;131881;1253;114674;-65
2023/12/18 00:44:05;;;;;;;14.20;8.50;;;;;;;1.76;72.36;101617.46;131882;1254;114639;-65
2023/12/18 00:47:11;;;;;;;16.30;8.20;;;;;;;1.75;72.58;101618.68;128836;1256;114703;-64
2023/12/18 00:50:13;;;;;;;15.90;8.00;;;;;;;1.74;72.81;101613.05;131864;1254;113210;-64
2023/12/18 00:53:18;;;;;;;14.60;7.30;;;;;;;1.75;72.99;101609.70;129215;1254;114687;-66
2023/12/18 00:56:25;;;;;;;14.10;7.70;;;;;;;1.74;72.83;101610.41;129056;1254;114849;-66
2023/12/18 00:59:29;;;;;;;15.70;8.00;;;;;;;1.73;72.86;101619.20;128989;1252;127820;-65
2023/12/18 01:02:31;;;;;;;15.40;7.90;;;;;;;1.73;73.18;101604.94;131800;1254;114076;-64
2023/12/18 01:05:35;;;;;;;16.60;8.40;;;;;;;1.73;73.03;101605.46;131877;1256;114632;-66
2023/12/18 01:08:39;;;;;;;14.20;7.10;;;;;;;1.75;73.14;101604.23;128857;1256;114725;-65
2023/12/18 01:11:41;;;;;;;15.80;7.40;;;;;;;1.77;73.42;101604.43;131910;1254;114667;-64
2023/12/18 01:14:46;;;;;;;13.90;8.00;;;;;;;1.77;73.55;101599.52;128924;1256;114687;-65
2023/12/18 01:17:52;;;;;;;15.90;7.30;;;;;;;1.79;73.57;101598.82;131731;1254;114559;-65
2023/12/18 01:20:55;;;;;;;15.40;6.80;;;;;;;1.80;73.34;101596.02;131675;1254;114658;-65
2023/12/18 01:23:59;;;;;;;13.10;6.70;;;;;;;1.82;73.92;101592.15;131856;1254;114057;-66
2023/12/18 01:27:03;;;;;;;13.50;6.40;;;;;;;1.85;73.81;101595.16;131836;1252;114785;-66
2023/12/18 01:30:08;;;;;;;11.40;5.90;;;;;;;1.87;74.03;101599.39;131858;1254;126599;-66
2023/12/18 01:33:10;;;;;;;17.00;6.80;;;;;;;1.89;73.96;101599.42;131848;1254;114388;-67
2023/12/18 01:36:13;;;;;;;15.20;8.20;;;;;;;1.92;74.44;101599.80;131789;1254;114664;-65
2023/12/18 01:39:16;;;;;;;17.50;7.70;;;;;;;1.94;74.24;101605.28;131874;1253;114680;-65
2023/12/18 01:42:18;;;;;;;14.90;6.80;;;;;;;1.96;74.10;101593.30;131808;1254;114692;-65
2023/12/18 01:45:21;;;;;;;15.20;7.70;;;;;;;1.95;73.92;101590.48;131845;1254;114684;-65
2023/12/18 01:48:25;;;;;;;16.80;7.60;;;;;;;1.97;74.20;101596.31;131900;1254;114692;-65
2023/12/18 01:51:28;;;;;;;13.90;7.10;;;;;;;1.97;73.89;101592.09;131867;1252;114655;-66
2023/12/18 01:54:32;;;;;;;13.40;5.80;;;;;;;1.98;74.13;101580.98;131897;1256;114670;-66
2023/12/18 01:57:35;;;;;;;12.00;5.80;;;;;;;1.97;74.34;101573.58;131834;1254;114806;-65
2023/12/18 02:00:38;;;;;;;12.10;6.10;;;;;;;1.99;74.28;101570.95;131761;1252;115288;-65
2023/12/18 02:03:44;;;;;;;10.70;5.30;;;;;;;2.00;74.23;101567.77;131850;1254;128650;-65
2023/12/18 02:06:48;;;;;;;10.80;5.90;;;;;;;1.99;74.36;101566.19;131789;1254;114735;-65
2023/12/18 02:09:52;;;;;;;12.10;6.20;;;;;;;2.00;74.47;101557.55;128777;1256;114680;-66
2023/12/18 02:12:55;;;;;;;11.40;6.00;;;;;;;2.03;74.44;101555.29;131953;1254;114670;-65
2023/12/18 02:16:00;;;;;;;11.30;6.20;;;;;;;2.05;74.40;101556.19;128839;1256;114686;-65
2023/12/18 02:19:03;;;;;;;12.60;5.50;;;;;;;2.08;74.60;101563.23;131837;1254;127891;-65
2023/12/18 02:22:05;;;;;;;12.70;7.20;;;;;;;2.08;74.59;101559.19;131901;1253;114696;-65
2023/12/18 02:25:08;;;;;;;12.70;6.20;;;;;;;2.06;74.56;101559.02;131865;1254;115384;-65
2023/12/18 02:28:11;;;;;;;12.70;6.00;;;;;;;2.05;74.61;101558.66;131862;1254;115136;-65
2023/12/18 02:31:14;;;;;;;9.30;5.40;;;;;;;2.06;74.61;101555.31;131856;1253;113315;-65
2023/12/18 02:34:17;;;;;;;11.40;5.70;;;;;;;2.06;74.74;101555.84;131890;1254;114716;-66
2023/12/18 02:37:22;;;;;;;11.30;5.60;;;;;;;2.07;74.63;101551.79;131918;1254;114619;-65
2023/12/18 02:40:28;;;;;;;10.10;5.10;;;;;;;2.06;74.65;101557.08;131903;1254;114744;-65
2023/12/18 02:43:31;;;;;;;9.60;5.20;;;;;;;2.06;74.58;101557.25;132014;1254;114676;-65
2023/12/18 02:46:33;;;;;;;10.50;5.20;;;;;;;2.05;74.72;101555.12;131942;1252;114668;-66
2023/12/18 02:49:36;;;;;;;12.70;5.10;;;;;;;2.03;74.79;101556.52;131957;1254;114687;-66
2023/12/18 02:52:38;;;;;;;9.20;4.90;;;;;;;2.03;74.62;101553.17;131952;1254;114679;-66
2023/12/18 02:55:41;;;;;;;10.20;4.80;;;;;;;2.02;74.46;101551.92;131936;1256;113215;-66
2023/12/18 02:58:44;;;;;;;7.40;4.70;;;;;;;1.99;74.86;101550.69;131881;1254;113321;-67
2023/12/18 03:01:47;;;;;;;7.90;4.80;;;;;;;1.97;74.87;101548.91;131916;1253;114619;-67
2023/12/18 03:04:49;;;;;;;11.90;5.40;;;;;;;1.96;74.67;101548.37;131853;1254;114684;-66
2023/12/18 03:07:52;;;;;;;9.70;4.70;;;;;;;1.94;74.97;101546.09;131825;1254;114734;-69
2023/12/18 03:10:55;;;;;;;8.80;5.20;;;;;;;1.91;74.83;101540.94;131877;1255;114734;-67
2023/12/18 03:13:58;;;;;;;12.20;5.30;;;;;;;1.89;74.74;101540.77;131875;1256;114677;-67
2023/12/18 03:17:01;;;;;;;8.90;4.70;;;;;;;1.87;74.75;101540.39;131918;1256;114649;-70
2023/12/18 03:20:06;;;;;;;9.60;4.60;;;;;;;1.86;74.80;101542.84;131837;1254;113249;-70
2023/12/18 03:23:08;;;;;;;11.80;5.30;;;;;;;1.85;74.81;101537.91;131728;1257;114847;-66
2023/12/18 03:26:11;;;;;;;9.10;5.10;;;;;;;1.84;75.01;101538.26;132042;1256;114741;-71
2023/12/18 03:29:14;;;;;;;10.70;4.50;;;;;;;1.81;74.92;101539.13;132036;1256;114690;-66
2023/12/18 03:32:16;;;;;;;10.30;4.50;;;;;;;1.79;75.10;101539.98;131891;1254;114428;-70
2023/12/18 03:35:19;;;;;;;10.00;4.20;;;;;;;1.76;75.36;101538.55;131912;1256;113220;-70
2023/12/18 03:38:22;;;;;;;9.30;4.80;;;;;;;1.76;74.97;101542.43;131721;1254;113364;-67
2023/12/18 03:41:25;;;;;;;9.60;3.90;;;;;;;1.77;75.39;101540.85;131865;1254;114655;-68
2023/12/18 03:44:27;;;;;;;7.80;4.20;;;;;;;1.80;75.66;101544.58;131827;1254;114641;-67
2023/12/18 03:47:30;;;;;;;7.70;4.10;;;;;;;1.83;75.72;101554.11;131766;1254;114681;-70
2023/12/18 03:50:33;;;;;;;9.20;4.30;;;;;;;1.86;75.91;101558.17;131919;1254;114667;-70
2023/12/18 03:53:36;;;;;;;6.40;4.50;;;;;;;1.86;75.85;101557.11;132008;1256;114665;-71
2023/12/18 03:56:39;;;;;;;7.70;4.60;;;;;;;1.87;75.71;101558.71;131792;1254;114644;-72
2023/12/18 03:59:43;;;;;;;8.50;4.10;;;;;;;1.88;75.50;101557.14;131812;1256;114633;-66
2023/12/18 04:02:46;;;;;;;6.90;3.80;;;;;;;1.89;75.47;101554.85;131965;1256;127677;-65
2023/12/18 04:05:49;;;;;;;8.10;4.40;;;;;;;1.88;75.70;101556.60;131908;1253;115055;-67
2023/12/18 04:08:51;;;;;;;7.10;4.10;;;;;;;1.86;75.63;101550.25;131921;1254;114591;-70
2023/12/18 04:11:54;;;;;;;6.60;3.90;;;;;;;1.85;75.58;101540.55;132001;1256;114800;-66
2023/12/18 04:14:57;;;;;;;7.10;4.30;;;;;;;1.81;75.75;101543.70;131883;1256;114670;-65
2023/12/18 04:18:00;;;;;;;8.30;4.00;;;;;;;1.79;75.70;101544.91;132002;1256;113123;-64
2023/12/18 04:21:04;;;;;;;8.20;3.90;;;;;;;1.77;75.60;101546.48;131878;1253;127725;-64
2023/12/18 04:24:09;;;;;;;7.10;4.20;;;;;;;1.76;75.86;101552.47;128919;1266;114751;-64
2023/12/18 04:27:11;;;;;;;10.70;5.30;;;;;;;1.75;75.65;101547.00;131886;1256;113655;-66
2023/12/18 04:30:16;;;;;;;10.10;4.70;;;;;;;1.74;75.83;101549.81;128716;1257;114445;-65
2023/12/18 04:33:19;;;;;;;8.20;4.00;;;;;;;1.73;75.80;101548.06;131857;1256;114629;-65
2023/12/18 04:36:21;;;;;;;7.70;4.30;;;;;;;1.72;75.71;101547.70;131832;1256;114748;-68
2023/12/18 04:39:44;;;;;;;7.30;4.10;;;;;;;1.70;75.82;101551.73;128700;1256;115286;-65
2023/12/18 04:42:52;;;;;;;8.40;4.70;;;;;;;1.66;75.44;101550.29;128723;1256;114667;-65
2023/12/18 04:46:01;;;;;;;8.20;4.60;;;;;;;1.64;75.39;101550.45;128874;1260;114070;-65
2023/12/18 04:49:06;;;;;;;7.50;4.50;;;;;;;1.64;75.44;101550.80;131720;1254;114796;-65
2023/12/18 04:52:13;;;;;;;8.30;4.30;;;;;;;1.62;75.46;101557.66;128792;1257;114830;-65
2023/12/18 04:55:18;;;;;;;8.60;4.20;;;;;;;1.61;75.73;101559.77;128680;1266;114769;-65
2023/12/18 04:58:21;;;;;;;7.60;5.00;;;;;;;1.61;75.80;101557.12;131668;1256;114860;-66
2023/12/18 05:01:25;;;;;;;11.00;4.40;;;;;;;1.60;75.71;101549.34;128818;1254;114683;-65
2023/12/18 05:04:28;;;;;;;12.40;4.70;;;;;;;1.57;75.47;101545.11;131726;1254;114692;-66
2023/12/18 05:07:33;;;;;;;10.10;5.20;;;;;;;1.53;75.76;101542.26;128841;1256;114690;-64
2023/12/18 05:10:37;;;;;;;9.20;4.80;;;;;;;1.53;75.75;101541.21;128984;1257;114701;-65
2023/12/18 05:13:40;;;;;;;8.50;4.90;;;;;;;1.51;76.22;101537.85;131800;1255;114776;-65
2023/12/18 05:16:45;;;;;;;7.40;5.00;;;;;;;1.52;76.10;101545.42;129015;1255;114687;-65
2023/12/18 05:19:49;;;;;;;11.40;6.20;;;;;;;1.51;76.07;101555.27;128961;1254;114673;-65
2023/12/18 05:22:56;;;;;;;11.30;6.60;;;;;;;1.50;76.13;101557.20;128961;1256;128898;-64
2023/12/18 05:26:05;;;;;;;9.10;5.10;;;;;;;1.48;76.14;101551.91;128977;1257;114374;-65
2023/12/18 05:29:10;;;;;;;11.40;5.80;;;;;;;1.43;76.07;101552.91;128984;1261;114430;-64
2023/12/18 05:32:13;;;;;;;10.00;5.60;;;;;;;1.42;76.29;101559.95;131960;1254;114700;-65
2023/12/18 05:35:16;;;;;;;9.10;4.90;;;;;;;1.41;76.32;101561.88;131913;1254;114677;-65
2023/12/18 05:38:23;;;;;;;11.50;6.50;;;;;;;1.39;76.64;101562.92;128874;1265;127695;-65
2023/12/18 05:41:27;;;;;;;12.00;7.80;;;;;;;1.37;76.51;101564.66;128901;1256;114849;-65
2023/12/18 05:44:31;;;;;;;11.10;6.20;;;;;;;1.35;76.47;101560.60;131876;1256;114684;-65
2023/12/18 05:47:33;;;;;;;10.20;6.70;;;;;;;1.33;76.85;101560.23;131870;1256;114663;-65
2023/12/18 05:50:36;;;;;;;9.50;6.00;;;;;;;1.36;76.84;101557.27;131840;1255;115046;-65
2023/12/18 05:53:42;;;;;;;9.50;6.60;;;;;;;1.39;76.70;101552.72;128732;1256;114572;-65
2023/12/18 05:56:50;;;;;;;;;;;;;;;1.41;76.94;101545.51;132225;1252;114649;-69
2023/12/18 06:00:13;;;;;;;11.20;6.50;;;;;;;1.44;77.35;101541.31;131725;1255;114897;-66
2023/12/18 06:03:16;;;;;;;12.20;8.50;;;;;;;1.45;76.94;101540.98;131793;1256;114683;-66
2023/12/18 06:06:18;;;;;;;11.80;7.30;;;;;;;1.47;76.93;101547.33;131918;1254;114635;-68
2023/12/18 06:09:21;;;;;;;12.70;8.90;;;;;;;1.47;77.11;101543.63;131808;1254;114705;-68
2023/12/18 06:12:24;;;;;;;14.30;8.50;;;;;;;1.48;77.28;101538.89;131644;1256;303770;-67
2023/12/18 06:15:27;;;;;;;10.80;8.00;;;;;;;1.52;77.21;101541.02;131892;1254;114722;-65
2023/12/18 06:18:29;;;;;;;14.30;8.70;;;;;;;1.56;77.20;101546.69;131961;1254;114670;-67
2023/12/18 06:21:40;;;;;;;14.00;9.50;;;;;;;1.59;77.26;101544.95;131730;1254;114730;-67
2023/12/18 06:24:42;;;;;;;15.10;8.90;;;;;;;1.59;77.17;101549.18;131872;1254;114528;-66
2023/12/18 06:27:47;;;;;;;17.10;11.90;;;;;;;1.58;77.08;101553.75;128707;1256;114845;-65
2023/12/18 06:30:49;;;;;;;18.70;11.40;;;;;;;1.57;77.08;101552.69;131900;1257;114363;-66
2023/12/18 06:33:52;;;;;;;21.40;12.50;;;;;;;1.56;77.08;101548.10;131866;1254;114687;-65
2023/12/18 06:36:55;;;;;;;17.30;12.20;;;;;;;1.55;76.99;101536.12;131851;1254;114648;-67
2023/12/18 06:39:57;;;;;;;18.40;12.00;;;;;;;1.53;77.24;101542.27;131808;1257;114788;-70
2023/12/18 06:43:00;;;;;;;16.00;11.00;;;;;;;1.48;77.11;101542.77;131860;1255;114734;-69
2023/12/18 06:46:04;;;;;;;19.00;12.20;;;;;;;1.46;77.06;101536.05;131876;1254;115926;-69
2023/12/18 06:49:07;;;;;;;19.00;9.70;;;;;;;1.46;77.10;101544.15;128805;1254;114821;-72
2023/12/18 06:52:10;;;;;;;14.60;9.80;;;;;;;1.44;77.00;101539.55;131904;1254;114706;-67
2023/12/18 06:55:12;;;;;;;17.70;10.70;;;;;;;1.39;77.18;101536.16;131898;1254;114699;-67
2023/12/18 06:58:15;;;;;;;15.20;10.10;;;;;;;1.40;77.11;101541.98;131845;1254;114636;-68
2023/12/18 07:01:18;;;;;;;14.10;9.60;;;;;;;1.41;77.18;101552.02;131858;1254;114648;-69
2023/12/18 07:04:21;;;;;;;16.40;9.70;;;;;;;1.43;77.65;101554.49;131980;1255;115324;-70
2023/12/18 07:07:24;;;;;;;15.30;9.60;;;;;;;1.45;77.27;101558.21;131977;1254;114619;-71
2023/12/18 07:10:28;;;;;;;14.30;9.10;;;;;;;1.45;77.33;101560.86;131796;1254;114467;-72
2023/12/18 07:13:35;;;;;;;12.90;9.70;;;;;;;1.44;77.25;101571.23;132025;1254;114694;-71
2023/12/18 07:16:38;;;;;;;15.00;8.80;;;;;;;1.44;77.16;101566.13;131790;1252;114607;-66
2023/12/18 07:19:41;;;;;;;15.70;11.20;;;;;;;1.45;77.32;101565.60;131854;1254;114594;-66
2023/12/18 07:22:44;;;;;;;15.60;10.30;;;;;;;1.46;77.39;101556.64;131898;1254;115427;-67
2023/12/18 07:25:47;;;;;;;17.20;9.90;;;;;;;1.47;77.13;101548.02;131862;1254;114715;-68
2023/12/18 07:28:50;;;;;;;15.40;9.20;;;;;;;1.49;77.38;101543.46;131877;1256;114735;-67
2023/12/18 07:31:53;;;;;;;17.00;9.80;;;;;;;1.50;77.44;101543.82;131919;1254;114686;-66
2023/12/18 07:34:59;;;;;;;15.30;9.10;;;;;;;1.51;77.51;101556.86;131825;1253;114622;-67
2023/12/18 07:38:05;;;;;;;16.30;9.00;;;;;;;1.57;77.37;101560.25;131864;1254;114715;-67
2023/12/18 07:41:13;;;;;;;15.70;9.50;;;;;;;1.63;77.60;101563.65;128848;1258;114895;-66
2023/12/18 07:44:16;;;;;;;15.00;9.30;;;;;;;1.71;78.01;101564.23;131889;1254;114667;-66
2023/12/18 07:47:19;;;;;;;15.20;8.50;;;;;;;1.82;78.54;101568.90;131910;1257;114683;-66
2023/12/18 07:50:22;;;;;;;16.30;8.80;;;;;;;1.95;78.37;101570.76;131840;1254;114658;-66
2023/12/18 07:53:25;;;;;;;17.30;8.50;;;;;;;2.10;78.10;101567.30;131848;1253;114632;-67
2023/12/18 07:56:27;;;;;;;15.20;8.90;;;;;;;2.26;78.24;101560.70;131751;1254;114677;-67
2023/12/18 07:59:30;;;;;;;13.50;8.10;;;;;;;2.41;78.26;101567.65;131788;1254;114687;-66
2023/12/18 08:02:33;;;;;;;14.40;8.60;;;;;;;2.53;78.37;101568.05;131807;1254;114623;-66
2023/12/18 08:05:35;;;;;;;12.70;8.50;;;;;;;2.63;78.50;101569.33;131761;1255;114694;-67
2023/12/18 08:08:38;;;;;;;14.90;8.60;;;;;;;2.72;78.49;101567.77;131774;1254;114661;-69
2023/12/18 08:11:43;;;;;;;12.80;8.20;;;;;;;2.84;78.53;101571.52;128950;1258;115324;-65
2023/12/18 08:14:47;;;;;;;15.20;9.60;;;;;;;2.99;78.45;101573.85;128877;1257;114740;-68
2023/12/18 08:17:50;;;;;;;13.90;9.30;;;;;;;3.15;78.49;101581.29;131573;1254;114560;-67
2023/12/18 08:20:53;;;;;;;18.10;9.50;;;;;;;3.28;78.52;101579.02;131694;1253;114691;-67
2023/12/18 08:23:56;;;;;;;16.90;9.40;;;;;;;3.41;78.55;101580.98;131695;1254;114687;-66
2023/12/18 08:27:02;;;;;;;16.80;9.70;;;;;;;3.53;78.62;101570.73;131769;1253;115269;-67
2023/12/18 08:30:08;;;;;;;15.80;9.50;;;;;;;3.66;78.73;101570.91;131793;1254;113516;-68
2023/12/18 08:33:12;;;;;;;16.10;9.60;;;;;;;3.82;78.75;101571.45;131655;1254;115336;-67
2023/12/18 08:36:14;;;;;;;46.70;23.20;;;;;;;3.97;79.06;101572.30;131563;1254;115307;-66
2023/12/18 08:39:17;;;;;;;113.80;51.80;;;;;;;4.18;79.25;101573.48;131772;1254;114693;-66
2023/12/18 08:42:20;;;;;;;59.10;28.20;;;;;;;4.35;79.25;101572.03;131778;1254;114696;-67
2023/12/18 08:45:22;;;;;;;36.90;21.70;;;;;;;4.53;79.21;101575.33;131786;1254;114679;-67
2023/12/18 08:48:25;;;;;;;34.80;20.20;;;;;;;4.72;79.20;101572.42;131806;1253;114514;-67
2023/12/18 08:51:27;;;;;;;21.80;12.50;;;;;;;4.88;79.17;101570.20;131735;1253;114697;-66
2023/12/18 08:54:32;;;;;;;22.80;13.20;;;;;;;5.05;79.02;101562.67;128826;1254;114689;-66
2023/12/18 08:57:36;;;;;;;24.70;11.70;;;;;;;5.20;79.24;101562.92;128763;1257;127765;-65
2023/12/18 09:00:40;;;;;;;20.20;11.70;;;;;;;5.37;78.98;101566.89;131884;1254;114692;-65
2023/12/18 09:03:45;;;;;;;13.80;8.80;;;;;;;5.51;78.80;101560.92;128919;1256;114706;-65
2023/12/18 09:06:50;;;;;;;12.40;7.40;;;;;;;5.64;78.87;101562.60;129048;1257;114182;-64
2023/12/18 09:09:56;;;;;;;13.60;8.20;;;;;;;5.79;78.75;101573.63;128984;1254;113205;-66
2023/12/18 09:13:00;;;;;;;13.80;9.10;;;;;;;5.93;78.66;101572.80;129038;1254;127916;-65
2023/12/18 09:16:05;;;;;;;14.60;7.90;;;;;;;6.06;78.64;101568.95;128792;1256;114696;-68
2023/12/18 09:19:10;;;;;;;9.40;5.60;;;;;;;6.22;78.58;101563.48;128907;1256;114663;-65
2023/12/18 09:22:13;;;;;;;11.80;6.90;;;;;;;6.37;78.43;101559.77;131959;1253;114700;-64
2023/12/18 09:25:19;;;;;;;10.60;5.60;;;;;;;6.52;78.52;101555.67;128840;1261;114638;-66
2023/12/18 09:28:25;;;;;;;6.20;3.60;;;;;;;6.67;78.49;101550.33;128823;1254;128720;-65
2023/12/18 09:31:31;;;;;;;7.60;3.60;;;;;;;6.82;78.51;101545.88;128817;1256;114750;-65
2023/12/18 09:34:36;;;;;;;5.50;3.10;;;;;;;6.97;78.44;101541.92;128856;1255;114044;-66
2023/12/18 09:37:38;;;;;;;4.40;2.00;;;;;;;7.12;78.35;101547.40;131848;1254;114686;-65
2023/12/18 09:40:47;;;;;;;5.00;3.70;;;;;;;7.26;78.21;101546.83;128810;1256;114677;-65
2023/12/18 09:43:56;;;;;;;6.40;3.10;;;;;;;7.39;77.86;101548.05;128958;1254;127858;-64
2023/12/18 09:47:00;;;;;;;3.80;2.30;;;;;;;7.52;77.70;101542.86;128865;1254;114156;-65
2023/12/18 09:50:06;;;;;;;3.80;2.50;;;;;;;7.63;77.50;101536.10;132001;1254;114691;-65
2023/12/18 09:53:10;;;;;;;4.20;2.20;;;;;;;7.72;77.23;101530.60;131898;1252;114684;-66
2023/12/18 09:56:17;;;;;;;4.90;2.80;;;;;;;7.80;77.31;101527.61;128715;1253;114714;-65
2023/12/18 09:59:22;;;;;;;3.80;2.50;;;;;;;7.88;76.74;101526.58;128823;1254;128628;-65
2023/12/18 10:02:26;;;;;;;4.30;2.10;;;;;;;7.95;76.86;101518.98;128753;1260;114856;-66
2023/12/18 10:05:32;;;;;;;4.90;2.90;;;;;;;8.02;76.34;101517.77;128602;1252;113636;-65
2023/12/18 10:08:37;;;;;;;8.70;3.00;;;;;;;8.10;76.29;101519.60;128843;1256;114687;-64
2023/12/18 10:11:44;;;;;;;4.70;3.00;;;;;;;8.16;76.26;101510.92;131845;1254;114726;-64
2023/12/18 10:14:51;;;;;;;4.50;3.00;;;;;;;8.22;75.84;101517.55;128574;1252;127870;-64
2023/12/18 10:17:55;;;;;;;4.90;3.00;;;;;;;8.29;75.50;101513.50;128895;1256;114813;-65
2023/12/18 10:21:06;;;;;;;4.10;2.50;;;;;;;8.39;75.50;101511.52;128805;1254;114694;-64
2023/12/18 10:24:14;;;;;;;3.80;2.10;;;;;;;8.46;75.14;101510.50;128878;1254;114642;-65
2023/12/18 10:27:19;;;;;;;4.30;2.40;;;;;;;8.51;74.63;101502.39;128801;1254;115374;-65
2023/12/18 10:30:25;;;;;;;;;;;;;;;8.57;74.29;101506.20;128752;1254;128819;-65
2023/12/18 10:33:28;;;;;;;3.20;2.30;;;;;;;8.60;74.22;101501.32;131896;1253;114697;-65
2023/12/18 10:36:35;;;;;;;4.60;2.00;;;;;;;8.65;74.12;101501.38;131901;1253;115286;-66
2023/12/18 10:39:41;;;;;;;3.80;1.80;;;;;;;8.70;74.01;101494.86;131915;1254;113280;-67
2023/12/18 10:42:48;;;;;;;5.10;2.40;;;;;;;8.75;73.69;101489.95;128727;1256;114852;-65
2023/12/18 10:45:54;;;;;;;4.10;2.10;;;;;;;8.81;73.54;101489.81;131884;1254;128759;-65
2023/12/18 10:48:57;;;;;;;4.40;2.40;;;;;;;8.86;72.90;101484.89;131670;1253;114211;-65
2023/12/18 10:52:06;;;;;;;3.50;1.80;;;;;;;8.90;73.12;101480.50;131972;1254;114694;-65
2023/12/18 10:55:11;;;;;;;2.80;2.00;;;;;;;8.95;72.93;101477.71;131897;1252;114616;-65
2023/12/18 10:58:16;;;;;;;3.40;1.90;;;;;;;9.00;72.96;101476.02;131797;1252;115333;-66
2023/12/18 11:01:20;;;;;;;2.70;1.50;;;;;;;9.06;72.52;101479.44;131869;1256;128663;-65
2023/12/18 11:04:23;;;;;;;5.90;2.90;;;;;;;9.08;72.40;101475.81;131518;1254;114875;-66
2023/12/18 11:07:27;;;;;;;2.90;1.70;;;;;;;9.11;72.04;101474.11;131966;1252;114693;-66
2023/12/18 11:10:30;;;;;;;4.90;2.90;;;;;;;9.15;72.23;101465.31;131851;1253;114694;-65
2023/12/18 11:13:56;;;;;;;4.90;2.60;;;;;;;9.15;71.95;101450.33;131918;1254;114632;-65
2023/12/18 11:17:08;;;;;;;3.80;2.20;;;;;;;9.16;71.77;101441.23;131885;1252;128820;-65
2023/12/18 11:20:40;;;;;;;6.70;2.70;;;;;;;9.13;71.61;101425.61;131853;1256;114902;-65
2023/12/18 11:23:43;;;;;;;4.80;2.20;;;;;;;9.15;71.11;101420.76;131867;1253;115440;-67
2023/12/18 11:26:45;;;;;;;3.50;2.00;;;;;;;9.18;71.16;101413.73;131826;1253;114721;-66
2023/12/18 11:29:49;;;;;;;3.20;1.80;;;;;;;9.20;70.76;101409.73;131842;1253;114543;-67
2023/12/18 11:32:52;;;;;;;4.70;2.70;;;;;;;9.21;70.57;101428.42;131794;1253;114511;-66
2023/12/18 11:35:55;;;;;;;4.40;2.30;;;;;;;9.20;70.25;101438.97;131821;1254;114527;-66
2023/12/18 11:38:58;;;;;;;9.00;2.70;;;;;;;9.17;69.98;101445.28;131838;1253;114610;-66
2023/12/18 11:42:01;;;;;;;9.30;5.00;;;;;;;9.13;69.72;101441.11;131869;1253;114693;-66
2023/12/18 11:45:04;;;;;;;6.00;3.70;;;;;;;9.09;69.61;101441.21;131881;1252;114619;-66
2023/12/18 11:48:08;;;;;;;4.80;2.70;;;;;;;9.06;69.35;101447.70;131793;1254;114667;-67
2023/12/18 11:51:15;;;;;;;7.60;3.40;;;;;;;9.05;69.46;101447.55;131868;1253;114680;-67
2023/12/18 11:54:24;;;;;;;5.30;3.50;;;;;;;9.07;69.53;101449.81;131790;1254;114087;-67
2023/12/18 11:57:26;;;;;;;6.30;3.90;;;;;;;9.09;69.58;101446.38;131541;1254;114639;-66
2023/12/18 12:00:33;;;;;;;8.40;4.60;;;;;;;9.10;69.42;101438.52;131919;1252;113293;-67
2023/12/18 12:03:37;;;;;;;10.10;4.90;;;;;;;9.10;69.34;101438.52;131819;1253;127695;-67
2023/12/18 12:06:41;;;;;;;6.20;3.40;;;;;;;9.09;69.39;101439.79;131827;1254;114686;-69
2023/12/18 12:09:43;;;;;;;7.30;3.90;;;;;;;9.07;69.15;101430.92;131876;1256;114696;-66
2023/12/18 12:12:53;;;;;;;8.30;4.10;;;;;;;9.05;68.94;101425.46;131778;1254;114683;-66
2023/12/18 12:15:58;;;;;;;5.90;3.90;;;;;;;9.03;68.90;101421.73;131849;1254;114452;-66
2023/12/18 12:19:01;;;;;;;5.70;3.50;;;;;;;9.05;68.87;101414.95;131549;1254;126806;-67
2023/12/18 12:22:04;;;;;;;4.30;2.90;;;;;;;9.06;68.61;101422.22;131798;1253;114694;-66
2023/12/18 12:25:07;;;;;;;12.00;4.50;;;;;;;9.06;68.92;101415.80;131861;1254;114667;-67
2023/12/18 12:28:11;;;;;;;4.90;2.30;;;;;;;9.08;68.66;101413.45;131587;1254;114690;-67
2023/12/18 12:31:19;;;;;;;4.40;2.90;;;;;;;9.11;68.64;101413.36;131802;1253;114696;-64
2023/12/18 12:34:22;;;;;;;4.40;2.80;;;;;;;9.11;68.35;101427.60;131816;1253;128629;-67
2023/12/18 12:37:24;;;;;;;4.50;3.10;;;;;;;9.13;68.03;101439.51;131849;1254;115170;-68
2023/12/18 12:40:37;;;;;;;9.00;4.50;;;;;;;9.15;68.18;101436.43;131977;1252;114676;-67
2023/12/18 12:43:40;;;;;;;6.40;3.80;;;;;;;9.16;68.18;101440.15;131621;1254;114571;-66
2023/12/18 12:46:43;;;;;;;6.60;3.20;;;;;;;9.17;68.04;101443.34;131978;1254;114684;-66
2023/12/18 12:49:46;;;;;;;8.20;3.80;;;;;;;9.16;68.17;101444.96;131945;1253;114652;-66
2023/12/18 12:52:49;;;;;;;6.10;3.10;;;;;;;9.17;67.91;101440.32;131857;1252;114693;-68
2023/12/18 12:55:54;;;;;;;6.40;2.80;;;;;;;9.17;68.12;101441.54;131812;1253;114912;-67
2023/12/18 12:58:57;;;;;;;3.60;2.70;;;;;;;9.19;68.10;101433.65;131774;1254;114792;-67
2023/12/18 13:01:59;;;;;;;4.80;2.90;;;;;;;9.21;67.86;101422.73;131823;1253;114601;-68
2023/12/18 13:05:08;;;;;;;7.40;3.30;;;;;;;9.24;68.09;101419.27;128714;1254;114854;-70
2023/12/18 13:08:12;;;;;;;4.90;3.00;;;;;;;9.27;67.68;101416.67;131763;1253;113980;-67
2023/12/18 13:11:16;;;;;;;7.90;5.80;;;;;;;9.29;67.62;101423.23;132015;1253;114722;-66
2023/12/18 13:14:20;;;;;;;;;;;;;;;9.33;67.61;101426.88;131874;1253;114689;-65
2023/12/18 13:17:26;;;;;;;5.20;2.90;;;;;;;9.34;67.73;101428.45;131631;1254;114032;-66
2023/12/18 13:20:29;;;;;;;4.80;2.60;;;;;;;9.34;67.29;101427.55;131916;1254;127808;-65
2023/12/18 13:23:32;;;;;;;3.30;2.30;;;;;;;9.36;67.41;101425.36;131928;1254;114748;-66
2023/12/18 13:26:36;;;;;;;5.70;4.20;;;;;;;9.39;67.32;101428.51;131746;1254;114674;-65
2023/12/18 13:29:41;;;;;;;6.40;3.20;;;;;;;9.40;67.00;101423.47;131866;1254;115234;-65
2023/12/18 13:32:44;;;;;;;6.50;3.30;;;;;;;9.39;66.88;101422.79;131874;1254;114674;-64
2023/12/18 13:35:47;;;;;;;6.10;3.50;;;;;;;9.37;66.74;101425.52;131824;1253;127861;-66
2023/12/18 13:38:50;;;;;;;7.50;4.20;;;;;;;9.34;66.66;101433.81;131853;1253;114632;-65
2023/12/18 13:41:56;;;;;;;6.20;3.10;;;;;;;9.33;66.69;101435.63;131705;1253;114996;-65
2023/12/18 13:45:01;;;;;;;4.20;2.40;;;;;;;9.31;66.44;101430.52;131862;1253;114639;-65
2023/12/18 13:48:05;;;;;;;7.10;3.20;;;;;;;9.26;66.40;101425.27;131867;1254;114623;-65
2023/12/18 13:51:08;;;;;;;4.20;2.60;;;;;;;9.22;66.27;101418.61;131881;1254;128801;-64
2023/12/18 13:54:13;;;;;;;4.70;3.00;;;;;;;9.17;66.14;101425.51;128678;1256;114705;-65
2023/12/18 13:57:16;;;;;;;8.00;4.70;;;;;;;9.11;66.16;101420.66;131598;1253;114709;-66
2023/12/18 14:00:19;;;;;;;5.50;3.20;;;;;;;9.05;66.27;101412.27;131755;1253;113364;-65